Time;durP1;ratioP1;P1;durP2;ratioP2;P2;SDS_P1;SDS_P2;PMS_P1;PMS_P2;Temp;Humidity;BMP_temperature;BMP_pressure;BME280_temperature;BME280_humidity;BME280_pressure;Samples;Min_cycle;Max_cycle;Signal;HPM_P1;HPM_P2
2021/10/20 00:02:18;;;;;;;;;7.75;7.75;;;;;23.80;45.23;101058.75;5078910;27;45323;-66
2021/10/20 00:04:43;;;;;;;;;6.50;6.00;;;;;23.77;45.51;101049.34;5078837;27;45354;-66
2021/10/20 00:07:09;;;;;;;;;8.00;8.00;;;;;23.78;45.36;101052.81;5080602;27;45574;-65
2021/10/20 00:09:35;;;;;;;;;7.75;6.50;;;;;23.77;45.62;101040.53;5081215;27;46949;-65
2021/10/20 00:12:00;;;;;;;;;8.25;8.00;;;;;23.77;45.49;101037.88;5081456;27;45945;-66
2021/10/20 00:14:25;;;;;;;;;7.00;7.00;;;;;23.76;45.82;101034.41;5080222;27;45651;-66
2021/10/20 00:16:52;;;;;;;;;7.00;6.25;;;;;23.75;45.53;101035.41;5094057;27;45357;-66
2021/10/20 00:19:17;;;;;;;;;10.25;9.50;;;;;23.74;45.75;101031.94;5090889;27;46650;-66
2021/10/20 00:21:43;;;;;;;;;7.00;7.00;;;;;23.74;45.27;101031.09;5092192;27;45282;-66
2021/10/20 00:24:09;;;;;;;;;7.75;6.75;;;;;23.74;45.88;101012.50;5093343;27;45399;-66
2021/10/20 00:26:34;;;;;;;;;8.00;7.25;;;;;23.73;45.72;101011.69;5093973;27;45482;-66
2021/10/20 00:28:59;;;;;;;;;8.25;7.00;;;;;23.72;45.27;101010.06;5093913;27;47301;-66
2021/10/20 00:31:25;;;;;;;;;6.00;6.00;;;;;23.72;45.32;101004.75;5095360;27;45237;-66
2021/10/20 00:33:50;;;;;;;;;9.00;8.50;;;;;23.66;45.48;101005.47;5093430;27;45582;-65
2021/10/20 00:36:16;;;;;;;;;7.75;6.25;;;;;23.72;45.48;101003.91;5092185;27;45435;-66
2021/10/20 00:38:42;;;;;;;;;8.75;8.00;;;;;23.72;45.66;100998.59;5093524;27;46930;-66
2021/10/20 00:41:08;;;;;;;;;7.25;7.25;;;;;23.67;45.49;100983.22;5093825;27;45331;-65
2021/10/20 00:43:33;;;;;;;;;7.00;6.50;;;;;23.73;45.39;100976.34;5095491;27;45486;-66
2021/10/20 00:45:59;;;;;;;;;7.50;5.75;;;;;23.56;45.38;100959.81;5093748;27;45624;-66
2021/10/20 00:48:24;;;;;;;;;7.25;7.25;;;;;23.71;45.27;100979.19;5093086;27;45405;-66
2021/10/20 00:50:50;;;;;;;;;7.00;7.00;;;;;23.71;45.32;100960.59;5093658;27;45469;-66
2021/10/20 00:53:15;;;;;;;;;8.50;7.00;;;;;23.72;45.48;100961.41;5093723;27;45462;-66
2021/10/20 00:55:41;;;;;;;;;7.00;6.00;;;;;23.71;45.51;100952.63;5094913;27;45500;-66
2021/10/20 00:58:07;;;;;;;;;7.75;6.00;;;;;23.67;45.50;100943.38;5092900;27;47499;-66
2021/10/20 01:00:33;;;;;;;;;9.25;7.00;;;;;23.71;45.67;100957.94;5083759;27;45464;-66
2021/10/20 01:02:59;;;;;;;;;7.75;6.50;;;;;23.71;45.58;100954.44;5080351;27;45312;-66
2021/10/20 01:05:26;;;;;;;;;9.50;9.00;;;;;23.70;45.29;100950.16;5079413;27;45427;-66
2021/10/20 01:07:51;;;;;;;;;7.25;7.25;;;;;23.70;45.49;100958.13;5076412;27;46237;-65
2021/10/20 01:10:17;;;;;;;;;8.00;8.00;;;;;23.72;45.90;100964.06;5079471;27;45496;-66
2021/10/20 01:12:43;;;;;;;;;8.25;6.75;;;;;23.71;45.32;100960.59;5080818;27;45815;-66
2021/10/20 01:15:21;;;;;;;;;9.75;7.25;;;;;23.71;45.69;100957.94;5084069;27;45495;-65
2021/10/20 01:17:47;;;;;;;;;9.00;6.25;;;;;23.70;45.90;100953.66;5083730;27;46480;-66
2021/10/20 01:20:13;;;;;;;;;7.75;7.75;;;;;23.70;45.74;100944.84;5080715;27;45403;-65
2021/10/20 01:22:39;;;;;;;;;8.75;8.75;;;;;23.70;45.56;100945.69;5081678;27;45407;-66
2021/10/20 01:25:06;;;;;;;;;7.50;7.50;;;;;23.63;45.77;100927.00;5083650;27;45488;-66
2021/10/20 01:27:32;;;;;;;;;11.25;9.00;;;;;23.62;45.27;100920.06;5083686;27;45374;-66
2021/10/20 01:30:02;;;;;;;;;9.00;7.25;;;;;23.72;45.32;100938.34;5083403;27;45479;-66
2021/10/20 01:32:28;;;;;;;;;8.00;7.00;;;;;23.73;45.37;100939.16;5092740;27;45446;-65
2021/10/20 01:34:53;;;;;;;;;6.25;6.25;;;;;23.71;45.55;100922.56;5092581;27;49594;-65
2021/10/20 01:37:21;;;;;;;;;7.50;7.50;;;;;23.73;45.49;100925.88;5078461;27;47755;-66
2021/10/20 01:39:47;;;;;;;;;6.75;6.75;;;;;23.73;45.62;100926.69;5068962;28;45566;-66
2021/10/20 01:42:12;;;;;;;;;8.25;8.25;;;;;23.74;45.38;100940.78;5080265;27;45500;-66
2021/10/20 01:44:38;;;;;;;;;8.25;6.75;;;;;23.74;45.60;100938.13;5080150;27;48820;-66
2021/10/20 01:47:04;;;;;;;;;6.75;6.00;;;;;23.74;45.05;100933.66;5079914;27;46102;-66
2021/10/20 01:49:30;;;;;;;;;10.50;8.00;;;;;23.75;45.15;100910.56;5077931;28;45451;-66
2021/10/20 01:51:55;;;;;;;;;7.00;7.00;;;;;23.75;45.70;100913.22;5078381;27;45997;-65
2021/10/20 01:54:20;;;;;;;;;7.00;7.00;;;;;23.71;45.13;100898.66;5088951;27;45280;-66
2021/10/20 01:56:47;;;;;;;;;8.00;8.00;;;;;23.76;45.61;100898.91;5083423;27;46247;-65
2021/10/20 01:59:12;;;;;;;;;6.25;6.25;;;;;23.66;45.21;100880.66;5078753;27;45569;-66
2021/10/20 02:01:38;;;;;;;;;7.50;7.50;;;;;23.77;45.78;100886.44;5080978;27;45398;-66
2021/10/20 02:04:09;;;;;;;;;7.00;7.00;;;;;23.77;44.94;100895.25;5083187;27;45323;-66
2021/10/20 02:06:34;;;;;;;;;6.75;6.75;;;;;23.70;45.45;100876.63;5083132;27;46124;-66
2021/10/20 02:08:59;;;;;;;;;8.00;7.75;;;;;23.76;45.11;100888.28;5083083;27;45989;-66
2021/10/20 02:11:25;;;;;;;;;7.25;7.25;;;;;23.77;44.91;100889.94;5081733;27;45757;-66
2021/10/20 02:13:50;;;;;;;;;8.75;7.00;;;;;23.77;45.39;100883.78;5080594;27;45271;-66
2021/10/20 02:16:15;;;;;;;;;6.75;6.75;;;;;23.77;45.36;100889.94;5081387;27;45366;-66
2021/10/20 02:18:41;;;;;;;;;7.00;7.00;;;;;23.69;45.38;100871.47;5082108;27;45453;-66
2021/10/20 02:21:06;;;;;;;;;9.50;7.75;;;;;23.77;45.54;100881.97;5082893;27;45380;-66
2021/10/20 02:23:32;;;;;;;;;7.00;7.00;;;;;23.65;45.41;100862.25;5082551;27;45365;-65
2021/10/20 02:25:58;;;;;;;;;7.00;7.00;;;;;23.78;45.09;100885.44;5079032;27;46268;-65
2021/10/20 02:28:23;;;;;;;;;8.00;7.00;;;;;23.78;45.61;100882.78;5081572;27;45323;-66
2021/10/20 02:30:49;;;;;;;;;7.25;7.25;;;;;23.68;45.26;100869.84;5082819;27;45773;-65
2021/10/20 02:33:14;;;;;;;;;8.00;8.00;;;;;23.77;45.13;100883.78;5082538;27;45339;-66
2021/10/20 02:35:39;;;;;;;;;6.75;6.75;;;;;23.78;45.06;100883.63;5082754;27;46110;-66
2021/10/20 02:38:05;;;;;;;;;8.75;7.75;;;;;23.77;44.95;100883.78;5095649;27;45308;-66
2021/10/20 02:40:30;;;;;;;;;8.00;8.00;;;;;23.76;45.47;100876.84;5097594;27;45677;-66
2021/10/20 02:42:56;;;;;;;;;8.25;8.00;;;;;23.76;45.30;100879.50;5095458;27;45362;-65
2021/10/20 02:45:21;;;;;;;;;9.00;9.00;;;;;23.74;45.15;100880.53;5094883;27;45370;-66
2021/10/20 02:47:47;;;;;;;;;9.00;9.00;;;;;23.74;45.64;100892.97;5095224;27;45350;-66
2021/10/20 02:50:13;;;;;;;;;8.75;8.75;;;;;23.74;45.11;100891.16;5095471;27;45287;-66
2021/10/20 02:52:39;;;;;;;;;9.00;7.25;;;;;23.74;45.58;100888.47;5096706;27;45426;-66
2021/10/20 02:55:06;;;;;;;;;7.50;7.50;;;;;23.73;45.10;100880.72;5095563;27;45485;-66
2021/10/20 02:57:32;;;;;;;;;7.75;7.75;;;;;23.73;45.70;100867.44;5075084;27;45401;-66
2021/10/20 02:59:58;;;;;;;;;7.75;6.25;;;;;23.73;45.64;100859.47;5094482;27;45449;-66
2021/10/20 03:02:24;;;;;;;;;6.75;6.75;;;;;23.70;45.52;100860.66;5095029;27;45288;-66
2021/10/20 03:04:49;;;;;;;;;8.00;8.00;;;;;23.63;45.21;100852.63;5095029;27;46271;-66
2021/10/20 03:07:15;;;;;;;;;12.00;9.25;;;;;23.72;45.34;100863.94;5096756;27;45342;-65
2021/10/20 03:09:40;;;;;;;;;5.25;5.25;;;;;23.73;45.16;100846.97;5095156;27;45495;-66
2021/10/20 03:12:06;;;;;;;;;7.25;7.25;;;;;23.73;45.04;100831.03;5075168;27;45438;-66
2021/10/20 03:14:31;;;;;;;;;6.00;6.00;;;;;23.65;45.21;100812.63;5091378;27;46996;-65
2021/10/20 03:16:56;;;;;;;;;9.50;9.00;;;;;23.72;45.36;100836.56;5078680;27;45399;-66
2021/10/20 03:19:22;;;;;;;;;8.00;8.00;;;;;23.72;45.64;100847.19;5081870;27;45378;-66
2021/10/20 03:21:47;;;;;;;;;6.75;6.75;;;;;23.71;45.05;100849.00;5082108;27;45315;-66
2021/10/20 03:24:13;;;;;;;;;7.25;7.25;;;;;23.72;45.52;100844.53;5081943;27;46141;-66
2021/10/20 03:26:38;;;;;;;;;6.50;6.50;;;;;23.72;45.21;100836.56;5081181;27;45354;-65
2021/10/20 03:29:03;;;;;;;;;9.00;8.00;;;;;23.73;45.45;100846.97;5078666;27;45794;-66
2021/10/20 03:31:29;;;;;;;;;7.25;6.75;;;;;23.74;45.72;100831.88;5080347;27;45391;-66
2021/10/20 03:33:54;;;;;;;;;8.75;8.75;;;;;23.67;45.32;100834.50;5081754;27;45977;-66
2021/10/20 03:36:19;;;;;;;;;9.50;9.00;;;;;23.74;45.46;100839.84;5081699;27;46330;-66
2021/10/20 03:38:45;;;;;;;;;7.00;6.00;;;;;23.71;45.13;100848.19;5081935;27;46188;-66
2021/10/20 03:41:10;;;;;;;;;7.75;7.50;;;;;23.76;45.17;100843.13;5078185;27;45437;-66
2021/10/20 03:43:38;;;;;;;;;7.50;7.50;;;;;23.76;45.31;100829.84;5079346;27;46760;-66
2021/10/20 03:46:03;;;;;;;;;7.00;7.00;;;;;23.77;45.00;100828.84;5081269;27;45250;-65
2021/10/20 03:48:29;;;;;;;;;9.00;9.00;;;;;23.77;45.02;100825.34;5081920;27;45488;-68
2021/10/20 03:50:54;;;;;;;;;7.50;7.50;;;;;23.77;45.31;100822.69;5081783;27;45529;-66
2021/10/20 03:53:19;;;;;;;;;7.75;7.00;;;;;23.78;45.43;100834.97;5079492;27;45291;-66
2021/10/20 03:55:45;;;;;;;;;8.25;7.50;;;;;23.78;45.47;100840.28;5079463;27;45339;-66
2021/10/20 03:58:11;;;;;;;;;6.00;6.00;;;;;23.77;45.50;100842.13;5080654;27;45224;-66
2021/10/20 04:00:36;;;;;;;;;7.00;6.25;;;;;23.75;45.32;100833.53;5081564;27;45331;-66
2021/10/20 04:03:01;;;;;;;;;9.50;8.00;;;;;23.70;45.04;100826.16;5081481;27;46672;-66
2021/10/20 04:05:27;;;;;;;;;7.00;7.00;;;;;23.77;45.26;100838.63;5080278;27;47976;-68
2021/10/20 04:07:52;;;;;;;;;7.00;7.00;;;;;23.77;45.51;100855.41;5078314;27;45518;-66
2021/10/20 04:10:23;;;;;;;;;8.00;8.00;;;;;23.77;45.12;100836.81;5094432;27;45379;-66
2021/10/20 04:12:49;;;;;;;;;10.00;9.00;;;;;23.77;45.01;100843.94;5093638;27;45457;-66
2021/10/20 04:15:16;;;;;;;;;7.50;7.50;;;;;23.76;45.61;100856.41;5092244;27;45446;-66
2021/10/20 04:17:42;;;;;;;;;9.00;9.00;;;;;23.76;45.47;100864.38;5093932;27;45496;-66
2021/10/20 04:20:09;;;;;;;;;8.00;7.50;;;;;23.75;45.26;100830.88;5094118;27;45355;-66
2021/10/20 04:22:36;;;;;;;;;11.00;9.50;;;;;23.65;45.70;100799.34;5095329;27;45276;-66
2021/10/20 04:25:03;;;;;;;;;6.00;6.00;;;;;23.75;45.18;100806.97;5093943;27;45465;-66
2021/10/20 04:27:28;;;;;;;;;8.25;7.00;;;;;23.75;45.30;100814.94;5080181;27;45513;-65
2021/10/20 04:29:56;;;;;;;;;8.25;7.75;;;;;23.75;45.08;100817.59;5077843;27;45217;-66
2021/10/20 04:32:21;;;;;;;;;7.50;7.50;;;;;23.64;45.60;100805.66;5079139;27;47254;-66
2021/10/20 04:34:47;;;;;;;;;8.50;6.75;;;;;23.73;45.31;100809.00;5078512;27;47961;-66
2021/10/20 04:37:12;;;;;;;;;8.75;8.25;;;;;23.74;45.05;100807.97;5079991;27;45469;-66
2021/10/20 04:39:37;;;;;;;;;9.00;6.75;;;;;23.73;45.10;100795.72;5080769;27;45297;-63
2021/10/20 04:42:03;;;;;;;;;8.00;8.00;;;;;23.73;45.56;100783.22;5081279;27;45265;-66
2021/10/20 04:44:28;;;;;;;;;5.25;5.25;;;;;23.72;45.57;100765.66;5083407;27;45354;-66
2021/10/20 04:46:54;;;;;;;;;7.00;7.00;;;;;23.69;45.53;100743.97;5081596;27;45951;-65
2021/10/20 04:49:19;;;;;;;;;11.50;8.00;;;;;23.73;45.42;100747.91;5083173;27;45469;-65
2021/10/20 04:51:44;;;;;;;;;7.25;7.25;;;;;23.74;45.18;100730.94;5084469;27;45980;-65
2021/10/20 04:54:10;;;;;;;;;7.00;7.00;;;;;23.73;45.32;100716.81;5083999;27;45296;-65
2021/10/20 04:56:35;;;;;;;;;9.00;6.75;;;;;23.73;45.75;100705.41;5084303;27;45508;-65
2021/10/20 04:59:00;;;;;;;;;7.50;7.50;;;;;23.73;45.76;100700.09;5080351;27;45527;-66
2021/10/20 05:01:26;;;;;;;;;8.50;8.50;;;;;23.72;45.57;100693.94;5078417;27;47350;-66
2021/10/20 05:03:51;;;;;;;;;7.00;7.00;;;;;23.73;45.25;100692.91;5084593;27;45376;-65
2021/10/20 05:06:16;;;;;;;;;9.50;8.00;;;;;23.68;45.52;100652.03;5084267;27;45332;-65
2021/10/20 05:08:42;;;;;;;;;9.00;9.00;;;;;23.73;45.08;100671.66;5083669;27;45559;-66
2021/10/20 05:11:07;;;;;;;;;7.00;7.00;;;;;23.73;45.34;100655.72;5079654;27;54278;-66
2021/10/20 05:13:32;;;;;;;;;9.00;5.50;;;;;23.69;45.54;100651.84;5082646;27;45399;-66
2021/10/20 05:15:58;;;;;;;;;8.75;7.25;;;;;23.72;45.32;100640.00;5084120;27;45569;-66
2021/10/20 05:18:23;;;;;;;;;9.25;9.00;;;;;23.76;45.46;100625.28;5084133;27;45477;-66
2021/10/20 05:20:49;;;;;;;;;7.50;7.50;;;;;23.71;45.54;100590.53;5083901;27;47068;-66
2021/10/20 05:23:16;;;;;;;;;7.00;7.00;;;;;23.77;45.09;100591.59;5079903;27;45382;-66
2021/10/20 05:25:41;;;;;;;;;8.75;8.75;;;;;23.77;45.75;100573.00;5081783;27;45349;-66
2021/10/20 05:28:07;;;;;;;;;7.50;7.50;;;;;23.76;45.75;100584.66;5079986;27;45287;-66
2021/10/20 05:30:33;;;;;;;;;7.25;7.00;;;;;23.74;45.56;100579.53;5080305;27;46175;-65
2021/10/20 05:32:59;;;;;;;;;7.25;7.25;;;;;23.77;45.66;100565.03;5083928;27;45447;-66
2021/10/20 05:35:25;;;;;;;;;6.50;6.50;;;;;23.75;45.75;100562.59;5082078;27;45546;-66
2021/10/20 05:37:51;;;;;;;;;6.75;6.75;;;;;23.76;45.41;100563.41;5080875;27;45323;-66
2021/10/20 05:40:18;;;;;;;;;9.75;9.50;;;;;23.74;45.64;100547.66;5095752;27;45429;-66
2021/10/20 05:42:43;;;;;;;;;8.00;6.75;;;;;23.76;45.70;100566.84;5096058;27;45585;-66
2021/10/20 05:45:09;;;;;;;;;7.75;7.75;;;;;23.71;45.73;100553.34;5096246;27;45514;-66
2021/10/20 05:47:35;;;;;;;;;8.00;7.50;;;;;23.77;45.46;100570.34;5094796;27;45537;-66
2021/10/20 05:50:00;;;;;;;;;8.50;7.00;;;;;23.77;45.64;100575.66;5096129;27;46921;-65
2021/10/20 05:52:26;;;;;;;;;7.75;7.00;;;;;23.75;45.31;100565.25;5097788;27;45367;-66
2021/10/20 05:54:51;;;;;;;;;8.50;8.00;;;;;23.68;45.65;100573.16;5095899;27;45338;-66
2021/10/20 05:57:17;;;;;;;;;8.00;8.00;;;;;23.76;45.56;100576.69;5096001;27;45520;-64
2021/10/20 05:59:42;;;;;;;;;8.00;8.00;;;;;23.70;45.79;100570.31;5095830;27;46515;-66
2021/10/20 06:02:11;;;;;;;;;10.00;8.00;;;;;23.75;45.54;100589.16;5095844;27;45561;-66
2021/10/20 06:04:36;;;;;;;;;9.75;8.75;;;;;23.70;45.70;100595.06;5097087;27;45322;-66
2021/10/20 06:07:02;;;;;;;;;9.00;7.25;;;;;23.74;45.75;100614.88;5096142;27;45495;-65
2021/10/20 06:09:27;;;;;;;;;7.75;7.00;;;;;23.69;45.60;100611.16;5094307;27;45992;-66
2021/10/20 06:11:53;;;;;;;;;9.25;8.00;;;;;23.67;45.50;100616.69;5091897;27;45346;-66
2021/10/20 06:14:19;;;;;;;;;9.00;7.50;;;;;23.73;45.43;100617.75;5080623;27;45454;-67
2021/10/20 06:16:44;;;;;;;;;9.25;9.25;;;;;23.74;45.78;100628.16;5080747;27;45402;-67
2021/10/20 06:19:10;;;;;;;;;7.00;6.00;;;;;23.63;45.65;100626.06;5082579;27;46997;-66
2021/10/20 06:21:35;;;;;;;;;10.00;8.25;;;;;23.76;45.67;100635.13;5072405;27;45352;-67
2021/10/20 06:24:00;;;;;;;;;9.00;7.25;;;;;23.71;45.27;100630.38;5088218;27;45497;-66
2021/10/20 06:26:26;;;;;;;;;7.25;7.25;;;;;23.76;45.81;100635.91;5081593;27;45486;-66
2021/10/20 06:28:51;;;;;;;;;5.50;5.50;;;;;23.74;45.57;100652.06;5080094;27;46107;-66
2021/10/20 06:31:16;;;;;;;;;9.50;7.25;;;;;23.75;46.05;100636.97;5087804;27;45782;-67
2021/10/20 06:33:42;;;;;;;;;5.25;5.25;;;;;23.74;45.84;100636.13;5091422;27;45484;-67
2021/10/20 06:36:18;;;;;;;;;7.25;6.75;;;;;23.73;45.93;100642.44;5086312;27;45556;-67
2021/10/20 06:38:44;;;;;;;;;6.50;6.50;;;;;23.76;46.32;100635.91;5079297;27;47292;-68
2021/10/20 06:41:09;;;;;;;;;8.00;6.75;;;;;23.77;45.84;100655.34;5079131;27;50616;-70
2021/10/20 06:43:34;;;;;;;;;7.50;7.50;;;;;23.78;45.76;100641.06;5095990;27;45276;-67
2021/10/20 06:46:02;;;;;;;;;8.75;7.75;;;;;23.77;45.78;100636.75;5095351;27;45478;-67
2021/10/20 06:48:27;;;;;;;;;7.00;5.50;;;;;23.78;46.38;100635.75;5094804;27;45508;-67
2021/10/20 06:50:53;;;;;;;;;5.75;5.75;;;;;23.79;46.00;100640.03;5094285;27;45318;-66
2021/10/20 06:53:18;;;;;;;;;7.75;7.75;;;;;23.79;46.61;100648.00;5077014;27;45365;-67
2021/10/20 06:55:45;;;;;;;;;8.00;8.00;;;;;23.80;46.19;100639.00;5095009;27;45514;-68
2021/10/20 06:58:10;;;;;;;;;7.50;7.50;;;;;23.80;46.28;100637.19;5097585;27;45747;-68
2021/10/20 07:00:36;;;;;;;;;8.75;7.50;;;;;23.82;46.86;100644.94;5103351;27;45541;-67
2021/10/20 07:03:01;;;;;;;;;7.75;7.75;;;;;23.77;46.80;100639.41;5095773;27;45576;-67
2021/10/20 07:05:26;;;;;;;;;6.75;6.75;;;;;23.83;46.37;100641.28;5088358;27;45493;-65
2021/10/20 07:07:52;;;;;;;;;8.00;7.00;;;;;23.84;46.69;100646.38;5093193;27;46187;-65
2021/10/20 07:10:17;;;;;;;;;6.00;6.00;;;;;23.85;46.23;100642.72;5096405;27;45472;-65
2021/10/20 07:12:42;;;;;;;;;9.25;8.00;;;;;23.87;46.20;100645.19;5076288;27;45494;-65
2021/10/20 07:15:08;;;;;;;;;6.00;6.00;;;;;23.90;46.91;100646.63;5094225;27;45541;-65
2021/10/20 07:17:34;;;;;;;;;7.25;7.25;;;;;23.80;46.68;100639.00;5094057;27;45392;-65
2021/10/20 07:19:59;;;;;;;;;6.75;6.75;;;;;23.88;46.19;100638.84;5094191;27;45564;-65
2021/10/20 07:22:27;;;;;;;;;7.25;7.00;;;;;23.97;46.31;100644.81;5095361;27;45464;-64
2021/10/20 07:24:52;;;;;;;;;9.25;7.75;;;;;23.99;46.81;100640.13;5093377;27;45502;-65
2021/10/20 07:27:17;;;;;;;;;8.25;7.50;;;;;24.00;46.19;100649.72;5093896;27;47133;-65
2021/10/20 07:29:46;;;;;;;;;7.00;7.00;;;;;23.99;46.43;100640.13;5092841;27;45467;-65
2021/10/20 07:32:12;;;;;;;;;8.00;8.00;;;;;24.00;46.04;100640.94;5093671;27;45433;-65
2021/10/20 07:34:38;;;;;;;;;9.25;8.25;;;;;24.01;46.14;100651.38;5095561;27;45357;-64
2021/10/20 07:37:03;;;;;;;;;7.00;7.00;;;;;24.00;46.72;100651.56;5093762;27;45329;-65
2021/10/20 07:39:28;;;;;;;;;7.25;7.00;;;;;24.00;46.48;100654.22;5085446;27;45571;-65
2021/10/20 07:41:54;;;;;;;;;6.00;5.25;;;;;24.01;46.21;100659.34;5081711;27;45366;-64
2021/10/20 07:44:19;;;;;;;;;7.50;6.75;;;;;24.11;46.28;100658.97;5078994;27;45353;-65
2021/10/20 07:46:45;;;;;;;;;6.75;5.75;;;;;24.22;46.19;100652.25;5061051;27;46886;-64
2021/10/20 07:49:10;;;;;;;;;7.00;7.00;;;;;24.30;46.33;100656.63;5080303;27;45427;-65
2021/10/20 07:51:36;;;;;;;;;7.50;6.00;;;;;24.35;46.02;100664.81;5081313;27;45304;-65
2021/10/20 07:54:02;;;;;;;;;8.75;7.25;;;;;24.26;45.83;100653.53;5081568;27;45350;-65
2021/10/20 07:56:32;;;;;;;;;7.25;6.50;;;;;24.31;45.87;100658.25;5079926;27;45472;-65
2021/10/20 07:58:59;;;;;;;;;7.00;6.00;;;;;24.36;45.83;100674.41;5077835;27;45477;-65
2021/10/20 08:01:24;;;;;;;;;8.00;7.00;;;;;24.38;45.85;100667.03;5079847;27;45284;-64
2021/10/20 08:03:49;;;;;;;;;5.50;5.25;;;;;24.37;45.94;100659.28;5080913;27;45305;-64
2021/10/20 08:06:16;;;;;;;;;8.75;7.75;;;;;24.37;46.02;100653.97;5080692;27;52071;-65
2021/10/20 08:08:42;;;;;;;;;10.25;8.75;;;;;24.37;45.71;100662.75;5081111;27;45538;-65
2021/10/20 08:11:07;;;;;;;;;9.75;8.00;;;;;24.36;45.66;100658.47;5077222;27;45285;-65
2021/10/20 08:13:33;;;;;;;;;9.00;7.75;;;;;24.36;45.86;100655.78;5079736;27;45374;-64
2021/10/20 08:15:58;;;;;;;;;7.00;7.00;;;;;24.36;46.21;100655.78;5091343;27;45323;-65
2021/10/20 08:18:24;;;;;;;;;10.00;9.50;;;;;24.38;45.88;100655.63;5092436;27;45310;-65
2021/10/20 08:20:50;;;;;;;;;10.00;8.75;;;;;24.36;45.84;100647.00;5097289;27;45305;-65
2021/10/20 08:23:15;;;;;;;;;7.00;7.00;;;;;24.37;45.86;100653.97;5095502;27;45290;-65
2021/10/20 08:25:40;;;;;;;;;8.00;8.00;;;;;24.37;46.06;100662.75;5097607;27;45483;-65
2021/10/20 08:28:06;;;;;;;;;6.00;5.25;;;;;24.38;45.83;100660.94;5080890;27;45361;-65
2021/10/20 08:30:34;;;;;;;;;8.00;7.00;;;;;24.32;45.81;100657.22;5084925;27;45582;-65
2021/10/20 08:33:00;;;;;;;;;8.75;7.75;;;;;24.29;46.08;100647.81;5083943;27;45543;-66
2021/10/20 08:35:26;;;;;;;;;8.00;7.00;;;;;24.36;45.99;100669.09;5082524;27;45932;-65
2021/10/20 08:37:56;;;;;;;;;9.25;7.75;;;;;24.35;45.98;100667.47;5081641;27;45511;-65
2021/10/20 08:40:26;;;;;;;;;7.25;7.25;;;;;24.36;46.18;100662.94;5083286;27;45560;-65
2021/10/20 08:42:53;;;;;;;;;9.75;9.75;;;;;24.34;46.07;100655.19;5084162;27;45508;-65
2021/10/20 08:45:19;;;;;;;;;8.50;8.50;;;;;24.23;46.03;100642.44;5083978;27;45401;-65
2021/10/20 08:47:47;;;;;;;;;6.75;6.75;;;;;24.28;46.17;100645.34;5084045;27;45248;-65
2021/10/20 08:50:18;;;;;;;;;8.50;7.25;;;;;24.32;45.90;100646.59;5086748;27;45589;-65
2021/10/20 08:52:44;;;;;;;;;11.00;10.00;;;;;24.31;45.83;100652.91;5078410;27;45262;-65
2021/10/20 08:55:09;;;;;;;;;9.75;8.00;;;;;24.29;45.83;100650.47;5079911;27;46443;-65
2021/10/20 08:57:34;;;;;;;;;9.50;7.00;;;;;24.19;46.00;100631.41;5080718;27;45434;-64
2021/10/20 09:00:08;;;;;;;;;9.25;8.00;;;;;24.27;45.97;100644.53;5080736;27;45414;-65
2021/10/20 09:02:39;;;;;;;;;9.50;8.75;;;;;24.23;46.27;100637.94;5083212;27;45296;-65
2021/10/20 09:05:06;;;;;;;;;9.75;7.75;;;;;24.05;45.97;100602.13;5080190;27;47273;-64
2021/10/20 09:07:31;;;;;;;;;10.75;9.00;;;;;24.22;46.31;100631.00;5094246;27;45414;-64
2021/10/20 09:09:56;;;;;;;;;7.00;6.50;;;;;24.22;46.39;100635.50;5081002;27;45431;-65
2021/10/20 09:12:28;;;;;;;;;8.25;7.50;;;;;24.17;46.57;100620.16;5080607;27;45500;-65
2021/10/20 09:14:57;;;;;;;;;6.75;6.75;;;;;24.20;46.12;100635.66;5080655;27;45430;-64
2021/10/20 09:17:23;;;;;;;;;11.25;7.50;;;;;24.20;46.32;100642.84;5080211;27;45495;-65
2021/10/20 09:19:49;;;;;;;;;8.75;7.00;;;;;24.18;46.07;100635.88;5078611;27;45310;-65
2021/10/20 09:22:14;;;;;;;;;12.50;9.00;;;;;24.20;46.37;100640.19;5080391;27;45546;-65
2021/10/20 09:24:42;;;;;;;;;8.75;6.25;;;;;24.20;46.45;100634.88;5080436;27;50052;-65
2021/10/20 09:27:24;;;;;;;;;7.75;7.00;;;;;24.18;46.23;100629.75;5083722;27;45646;-65
2021/10/20 09:29:49;;;;;;;;;8.00;7.00;;;;;24.17;46.48;100626.25;5082870;27;46145;-64
2021/10/20 09:32:18;;;;;;;;;8.50;7.75;;;;;24.19;46.44;100620.75;5080705;27;45417;-65
2021/10/20 09:34:43;;;;;;;;;8.75;7.00;;;;;24.19;46.71;100618.09;5081191;27;45603;-65
2021/10/20 09:37:08;;;;;;;;;8.25;7.00;;;;;24.18;46.42;100621.78;5082962;27;45480;-65
2021/10/20 09:39:37;;;;;;;;;7.00;7.00;;;;;24.18;46.34;100621.78;5083263;27;45569;-65
2021/10/20 09:42:11;;;;;;;;;6.75;6.00;;;;;24.16;46.39;100613.19;5083510;27;45376;-65
2021/10/20 09:44:50;;;;;;;;;9.25;7.00;;;;;24.16;46.38;100618.50;5082406;27;45425;-65
2021/10/20 09:47:17;;;;;;;;;8.25;8.25;;;;;24.17;46.34;100620.16;5081364;27;45431;-65
2021/10/20 09:49:54;;;;;;;;;7.25;7.00;;;;;24.15;46.64;100606.22;5097215;27;45424;-65
2021/10/20 09:52:24;;;;;;;;;9.25;7.50;;;;;24.16;46.05;100606.03;5095950;27;45547;-65
2021/10/20 09:54:50;;;;;;;;;7.50;5.75;;;;;24.14;46.39;100604.59;5078575;27;47431;-63
2021/10/20 09:57:16;;;;;;;;;10.25;9.00;;;;;24.13;46.70;100592.31;5095765;27;45276;-65
2021/10/20 09:59:43;;;;;;;;;8.50;8.50;;;;;24.07;46.56;100594.75;5095603;27;45469;-65
2021/10/20 10:02:10;;;;;;;;;8.75;8.50;;;;;24.16;46.53;100606.03;5095925;27;45633;-64
2021/10/20 10:04:37;;;;;;;;;8.75;6.50;;;;;24.16;46.63;100591.91;5097516;27;46720;-65
2021/10/20 10:07:03;;;;;;;;;9.25;9.25;;;;;24.12;46.26;100594.19;5096102;27;45467;-64
2021/10/20 10:09:29;;;;;;;;;7.50;7.50;;;;;24.16;46.27;100589.25;5095781;27;45467;-65
2021/10/20 10:11:58;;;;;;;;;9.00;8.75;;;;;24.16;46.34;100595.41;5095540;27;45508;-64
2021/10/20 10:14:31;;;;;;;;;8.00;7.50;;;;;24.16;46.15;100595.41;5092410;27;45593;-65
2021/10/20 10:17:01;;;;;;;;;7.50;6.75;;;;;24.16;46.67;100584.78;5079436;27;45553;-65
2021/10/20 10:19:29;;;;;;;;;6.00;6.00;;;;;24.17;46.75;100585.59;5081685;27;45362;-65
2021/10/20 10:21:54;;;;;;;;;9.25;7.00;;;;;24.09;46.22;100578.63;5082580;27;45486;-65
2021/10/20 10:24:20;;;;;;;;;9.75;8.25;;;;;24.17;46.30;100590.91;5082772;27;46018;-65
2021/10/20 10:27:06;;;;;;;;;10.00;7.75;;;;;24.17;46.23;100588.25;5082858;27;45411;-65
2021/10/20 10:29:45;;;;;;;;;8.00;7.25;;;;;24.17;46.70;100582.94;5081886;27;45387;-65
2021/10/20 10:32:10;;;;;;;;;6.00;5.00;;;;;24.17;46.19;100581.06;5079605;27;45316;-65
2021/10/20 10:34:43;;;;;;;;;9.50;6.75;;;;;24.16;46.45;100584.78;5076575;27;45409;-65
2021/10/20 10:37:08;;;;;;;;;6.75;5.75;;;;;24.16;46.63;100576.78;5078511;27;45361;-65
2021/10/20 10:39:34;;;;;;;;;9.75;6.00;;;;;24.15;46.39;100577.81;5078522;27;45358;-65
2021/10/20 10:42:04;;;;;;;;;7.00;7.00;;;;;24.11;46.35;100565.13;5078907;27;45494;-65
2021/10/20 10:44:31;;;;;;;;;7.25;6.00;;;;;24.15;46.86;100569.00;5064210;27;46402;-65
2021/10/20 10:47:26;;;;;;;;;7.75;7.00;;;;;24.15;46.38;100566.34;5077448;27;45543;-66
2021/10/20 10:49:55;;;;;;;;;8.25;6.25;;;;;24.09;46.74;100554.72;5091864;27;45545;-65
2021/10/20 10:52:35;;;;;;;;;7.25;6.25;;;;;24.14;46.57;100562.91;5095945;27;45472;-66
2021/10/20 10:55:18;;;;;;;;;6.75;6.75;;;;;24.15;46.85;100567.16;5094228;27;46573;-67
2021/10/20 10:57:52;;;;;;;;;7.75;5.75;;;;;24.14;46.32;100554.91;5069604;27;45454;-67
2021/10/20 11:00:18;;;;;;;;;9.25;7.25;;;;;24.16;46.33;100562.69;5094225;27;45500;-67
2021/10/20 11:02:52;;;;;;;;;10.50;9.25;;;;;24.17;46.91;100545.72;5053864;27;45463;-67
2021/10/20 11:05:25;;;;;;;;;8.50;7.50;;;;;24.17;46.86;100543.06;5050901;27;45566;-68
2021/10/20 11:07:53;;;;;;;;;8.25;6.75;;;;;24.15;46.65;100532.63;5048288;28;45569;-67
2021/10/20 11:10:19;;;;;;;;;6.25;6.25;;;;;24.18;46.63;100534.88;5047411;28;45304;-67
2021/10/20 11:12:49;;;;;;;;;8.00;8.00;;;;;24.19;46.94;100527.72;5050476;28;46121;-67
2021/10/20 11:15:16;;;;;;;;;7.25;6.75;;;;;24.21;46.80;100520.38;5050169;28;45411;-67
2021/10/20 11:17:41;;;;;;;;;6.50;5.00;;;;;24.21;46.57;100530.16;5051404;28;45532;-67
2021/10/20 11:20:12;;;;;;;;;8.50;8.50;;;;;24.22;46.30;100523.84;5052204;28;45407;-68
2021/10/20 11:22:38;;;;;;;;;7.00;6.75;;;;;24.22;46.60;100516.69;5047728;28;45458;-67